createdAt,value
2022-08-21T00:00:25.616Z,101090.97
2022-08-21T00:02:56.345Z,101088.69
2022-08-21T00:05:24.257Z,101078.06
2022-08-21T00:07:50.855Z,101080.00
2022-08-21T00:10:18.132Z,101074.69
2022-08-21T00:12:46.350Z,101076.84
2022-08-21T00:15:16.020Z,101076.28
2022-08-21T00:17:42.562Z,101077.00
2022-08-21T00:20:11.183Z,101077.84
2022-08-21T00:22:37.888Z,101070.00
2022-08-21T00:25:06.786Z,101077.50
2022-08-21T00:27:34.129Z,101067.69
2022-08-21T00:30:00.609Z,101062.16
2022-08-21T00:32:28.648Z,101066.03
2022-08-21T00:34:55.925Z,101062.41
2022-08-21T00:37:23.057Z,101058.19
2022-08-21T00:39:50.406Z,101059.78
2022-08-21T00:42:18.489Z,101053.38
2022-08-21T00:44:50.786Z,101059.78
2022-08-21T00:47:19.514Z,101065.34
2022-08-21T00:49:46.181Z,101060.59
2022-08-21T00:52:20.213Z,101055.03
2022-08-21T00:54:49.045Z,101062.78
2022-08-21T00:57:21.856Z,101060.03
2022-08-21T00:59:54.686Z,101053.03
2022-08-21T01:02:21.553Z,101054.00
2022-08-21T01:04:48.609Z,101049.78
2022-08-21T01:07:15.764Z,101049.44
2022-08-21T01:09:42.776Z,101058.75
2022-08-21T01:14:45.597Z,101051.88
2022-08-21T01:17:14.870Z,101061.31
2022-08-21T01:19:41.614Z,101052.38
2022-08-21T01:22:08.466Z,101048.53
2022-08-21T01:24:35.013Z,101039.56
2022-08-21T01:27:02.321Z,101043.56
2022-08-21T01:29:52.180Z,101047.53
2022-08-21T01:32:20.765Z,101035.94
2022-08-21T01:34:50.085Z,101035.44
2022-08-21T01:37:17.790Z,101039.91
2022-08-21T01:39:45.408Z,101041.09
2022-08-21T01:42:12.581Z,101037.47
2022-08-21T01:44:39.244Z,101041.09
2022-08-21T01:47:09.985Z,101044.47
2022-08-21T01:49:38.031Z,101042.81
2022-08-21T01:52:06.035Z,101042.19
2022-08-21T01:54:36.630Z,101057.41
2022-08-21T01:57:03.846Z,101048.25
2022-08-21T01:59:31.300Z,101053.78
2022-08-21T02:01:58.355Z,101048.25
2022-08-21T02:04:25.151Z,101048.25
2022-08-21T02:06:51.842Z,101044.03
2022-08-21T02:09:19.371Z,101049.22
2022-08-21T02:11:46.898Z,101044.63
2022-08-21T02:14:15.300Z,101047.56
2022-08-21T02:17:05.066Z,101047.09
2022-08-21T02:19:39.569Z,101039.16
2022-08-21T02:22:07.428Z,101041.81
2022-08-21T02:24:33.943Z,101042.53
2022-08-21T02:27:00.477Z,101050.50
2022-08-21T02:29:26.882Z,101043.75
2022-08-21T02:31:54.043Z,101037.00
2022-08-21T02:34:20.500Z,101039.16
2022-08-21T02:36:46.956Z,101031.34
2022-08-21T02:39:27.421Z,101034.78
2022-08-21T02:41:54.361Z,101039.41
2022-08-21T02:44:20.982Z,101036.00
2022-08-21T02:46:56.648Z,101034.22
2022-08-21T02:49:23.070Z,101041.31
2022-08-21T02:51:49.517Z,101037.34
2022-08-21T02:54:15.944Z,101046.13
2022-08-21T02:56:42.384Z,101044.94
2022-08-21T02:59:08.828Z,101043.72
2022-08-21T03:01:35.272Z,101043.72
2022-08-21T03:04:01.708Z,101039.50
2022-08-21T03:06:28.148Z,101037.44
2022-08-21T03:08:54.718Z,101036.22
2022-08-21T03:11:21.816Z,101033.69
2022-08-21T03:13:48.312Z,101028.38
2022-08-21T03:16:15.245Z,101038.38
2022-08-21T03:18:41.673Z,101036.72
2022-08-21T03:21:08.326Z,101031.16
2022-08-21T03:23:34.859Z,101040.19
2022-08-21T03:26:01.906Z,101040.19
2022-08-21T03:28:29.157Z,101043.19
2022-08-21T03:30:56.323Z,101038.75
2022-08-21T03:33:23.544Z,101036.78
2022-08-21T03:35:59.552Z,101038.97
2022-08-21T03:38:27.448Z,101040.31
2022-08-21T03:40:54.375Z,101036.44
2022-08-21T03:43:21.253Z,101045.84
2022-08-21T03:45:47.932Z,101050.78
2022-08-21T03:48:15.322Z,101046.56
2022-08-21T03:50:44.134Z,101047.41
2022-08-21T03:53:16.488Z,101054.03
2022-08-21T03:55:48.975Z,101046.78
2022-08-21T03:58:17.863Z,101052.59
2022-08-21T04:00:49.836Z,101048.97
2022-08-21T04:03:17.125Z,101048.13
2022-08-21T04:05:43.748Z,101055.56
2022-08-21T04:08:10.216Z,101060.53
2022-08-21T04:10:38.933Z,101047.59
2022-08-21T04:13:07.878Z,101054.25
2022-08-21T04:15:34.953Z,101064.09
2022-08-21T04:18:01.420Z,101062.63
2022-08-21T04:20:28.325Z,101072.28
2022-08-21T04:22:56.126Z,101069.97
2022-08-21T04:25:23.755Z,101082.97
2022-08-21T04:27:50.297Z,101074.91
2022-08-21T04:30:17.594Z,101080.69
2022-08-21T04:32:46.414Z,101086.22
2022-08-21T04:35:14.431Z,101077.53
2022-08-21T04:37:42.183Z,101080.31
2022-08-21T04:40:11.014Z,101087.78
2022-08-21T04:42:45.447Z,101085.22
2022-08-21T04:45:28.189Z,101086.56
2022-08-21T04:47:57.492Z,101088.72
2022-08-21T04:50:30.035Z,101087.03
2022-08-21T04:52:56.776Z,101094.69
2022-08-21T04:55:25.255Z,101095.81
2022-08-21T04:57:54.478Z,101091.34
2022-08-21T05:00:22.756Z,101089.63
2022-08-21T05:02:50.037Z,101100.25
2022-08-21T05:05:17.079Z,101093.41
2022-08-21T05:07:45.069Z,101095.09
2022-08-21T05:10:12.396Z,101099.56
2022-08-21T05:12:42.793Z,101089.31
2022-08-21T05:15:13.309Z,101099.34
2022-08-21T05:17:41.770Z,101093.78
2022-08-21T05:20:12.287Z,101102.94
2022-08-21T05:22:39.101Z,101103.19
2022-08-21T05:25:10.293Z,101105.72
2022-08-21T05:27:37.980Z,101107.38
2022-08-21T05:30:08.477Z,101106.31
2022-08-21T05:32:35.870Z,101105.25
2022-08-21T05:35:03.702Z,101098.38
2022-08-21T05:37:30.174Z,101099.84
2022-08-21T05:40:20.579Z,101098.75
2022-08-21T05:42:43.346Z,101097.69
2022-08-21T05:45:09.850Z,101096.16
2022-08-21T05:47:36.481Z,101087.13
2022-08-21T05:50:04.012Z,101088.34
2022-08-21T05:52:30.517Z,101084.84
2022-08-21T05:54:57.012Z,101079.44
2022-08-21T05:57:24.236Z,101081.28
2022-08-21T05:59:51.349Z,101081.41
2022-08-21T06:02:19.263Z,101076.81
2022-08-21T06:04:45.852Z,101084.22
2022-08-21T06:07:12.837Z,101082.19
2022-08-21T06:09:39.274Z,101077.38
2022-08-21T06:12:11.505Z,101075.69
2022-08-21T06:14:39.898Z,101072.06
2022-08-21T06:17:08.681Z,101077.91
2022-08-21T06:19:35.650Z,101077.06
2022-08-21T06:22:02.986Z,101076.81
2022-08-21T06:24:29.645Z,101084.88
2022-08-21T06:26:56.502Z,101073.75
2022-08-21T06:29:23.603Z,101074.31
2022-08-21T06:31:52.117Z,101076.00
2022-08-21T06:34:19.150Z,101075.47
2022-08-21T06:36:45.613Z,101076.00
2022-08-21T06:39:16.397Z,101076.59
2022-08-21T06:41:52.270Z,101065.16
2022-08-21T06:44:19.945Z,101073.16
2022-08-21T06:46:46.531Z,101066.44
2022-08-21T06:49:21.272Z,101063.34
2022-08-21T06:51:48.279Z,101060.72
2022-08-21T06:54:14.760Z,101058.94
2022-08-21T06:56:41.203Z,101051.34
2022-08-21T06:59:07.644Z,101048.47
2022-08-21T07:01:34.086Z,101047.81
2022-08-21T07:04:00.581Z,101049.63
2022-08-21T07:06:26.984Z,101048.06
2022-08-21T07:08:53.813Z,101049.88
2022-08-21T07:11:24.197Z,101040.00
2022-08-21T07:13:53.635Z,101041.19
2022-08-21T07:16:24.161Z,101039.66
2022-08-21T07:18:50.715Z,101041.97
2022-08-21T07:21:17.274Z,101042.94
2022-08-21T07:23:47.765Z,101030.81
2022-08-21T07:26:17.104Z,101034.22
2022-08-21T07:28:45.894Z,101031.81
2022-08-21T07:31:14.997Z,101032.16
2022-08-21T07:33:42.229Z,101028.63
2022-08-21T07:36:09.429Z,101032.09
2022-08-21T07:38:36.491Z,101015.44
2022-08-21T07:41:07.832Z,101017.75
2022-08-21T07:43:34.315Z,101016.66
2022-08-21T07:46:00.832Z,101018.66
2022-08-21T07:48:27.380Z,101018.78
2022-08-21T07:50:53.914Z,101016.91
2022-08-21T07:53:20.328Z,101016.69
2022-08-21T07:55:46.728Z,101020.94
2022-08-21T07:58:13.774Z,101017.88
2022-08-21T08:00:41.240Z,101025.50
2022-08-21T08:03:07.726Z,101024.44
2022-08-21T08:05:36.176Z,101021.13
2022-08-21T08:08:02.784Z,101026.75
2022-08-21T08:10:29.264Z,101027.63
2022-08-21T08:12:56.138Z,101025.44
2022-08-21T08:15:25.895Z,101025.75
2022-08-21T08:17:53.258Z,101020.44
2022-08-21T08:20:21.056Z,101020.44
2022-08-21T08:22:50.177Z,101015.13
2022-08-21T08:25:19.538Z,101014.63
2022-08-21T08:27:46.009Z,101001.72
2022-08-21T08:30:15.014Z,101004.81
2022-08-21T08:32:42.130Z,100992.72
2022-08-21T08:35:09.894Z,101001.38
2022-08-21T08:37:41.313Z,100994.34
2022-08-21T08:40:19.265Z,100989.84
2022-08-21T08:42:48.265Z,100988.38
2022-08-21T08:45:19.313Z,100983.56
2022-08-21T08:47:50.162Z,100979.00
2022-08-21T08:50:22.615Z,100968.31
2022-08-21T08:52:58.700Z,100975.53
2022-08-21T08:55:37.197Z,100975.47
2022-08-21T08:58:04.946Z,100974.81
2022-08-21T09:00:32.571Z,100975.34
2022-08-21T09:03:01.944Z,100974.19
2022-08-21T09:05:34.685Z,100983.09
2022-08-21T09:08:01.050Z,100973.44
2022-08-21T09:10:46.523Z,100961.78
2022-08-21T09:13:50.823Z,100963.69
2022-08-21T09:16:35.988Z,100954.28
2022-08-21T09:19:14.002Z,100956.69
2022-08-21T09:22:04.040Z,100945.31
2022-08-21T09:24:52.147Z,100942.38
2022-08-21T09:27:20.450Z,100945.31
2022-08-21T09:29:49.498Z,100945.41
2022-08-21T09:32:19.902Z,100938.78
2022-08-21T09:35:05.321Z,100938.00
2022-08-21T09:37:36.341Z,100931.94
2022-08-21T09:40:16.456Z,100928.66
2022-08-21T09:42:42.987Z,100914.63
2022-08-21T09:45:16.758Z,100919.44
2022-08-21T09:47:44.921Z,100914.09
2022-08-21T09:50:15.935Z,100930.19
2022-08-21T09:52:49.047Z,100900.56
2022-08-21T09:55:42.588Z,100903.09
2022-08-21T09:58:10.801Z,100898.94
2022-08-21T10:00:37.624Z,100899.78
2022-08-21T10:03:19.738Z,100893.59
2022-08-21T10:06:01.364Z,100905.81
2022-08-21T10:08:30.175Z,100897.69
2022-08-21T10:11:03.768Z,100890.66
2022-08-21T10:13:58.514Z,100887.38
2022-08-21T10:16:40.320Z,100888.81
2022-08-21T10:19:17.412Z,100879.78
2022-08-21T10:21:46.929Z,100869.25
2022-08-21T10:24:33.983Z,100864.19
2022-08-21T10:27:31.609Z,100862.16
2022-08-21T10:30:02.801Z,100857.75
2022-08-21T10:32:42.087Z,100842.34
2022-08-21T10:35:33.155Z,100841.81
2022-08-21T10:38:16.415Z,100846.53
2022-08-21T10:41:28.860Z,100832.78
2022-08-21T10:44:13.686Z,100837.81
2022-08-21T10:46:49.849Z,100844.66
2022-08-21T10:49:26.154Z,100840.22
2022-08-21T10:52:14.568Z,100843.91
2022-08-21T10:54:58.749Z,100829.69
2022-08-21T10:57:37.552Z,100836.88
2022-08-21T11:00:12.662Z,100829.31
2022-08-21T11:02:57.545Z,100825.91
2022-08-21T11:05:39.636Z,100823.69
2022-08-21T11:08:23.130Z,100828.44
2022-08-21T11:10:59.268Z,100821.22
2022-08-21T11:13:54.986Z,100828.69
2022-08-21T11:16:27.257Z,100820.59
2022-08-21T11:19:01.881Z,100817.94
2022-08-21T11:21:37.181Z,100816.31
2022-08-21T11:24:16.054Z,100817.06
2022-08-21T11:26:51.292Z,100812.91
2022-08-21T11:29:29.621Z,100801.19
2022-08-21T11:32:33.743Z,100807.94
2022-08-21T11:35:18.973Z,100792.25
2022-08-21T11:37:45.305Z,100799.03
2022-08-21T11:40:48.873Z,100794.69
2022-08-21T11:43:28.637Z,100781.06
2022-08-21T11:46:00.866Z,100789.66
2022-08-21T11:48:44.439Z,100786.47
2022-08-21T11:51:23.836Z,100775.69
2022-08-21T11:54:00.203Z,100785.19
2022-08-21T11:56:34.722Z,100777.94
2022-08-21T11:59:07.819Z,100770.81
2022-08-21T12:01:41.159Z,100771.66
2022-08-21T12:04:11.036Z,100775.91
2022-08-21T12:06:41.435Z,100771.06
2022-08-21T12:09:11.065Z,100770.22
2022-08-21T12:12:02.735Z,100770.69
2022-08-21T12:14:47.361Z,100771.59
2022-08-21T12:17:35.186Z,100765.38
2022-08-21T12:20:17.987Z,100766.09
2022-08-21T12:22:53.463Z,100771.81
2022-08-21T12:25:23.224Z,100768.78
2022-08-21T12:28:11.631Z,100761.63
2022-08-21T12:30:46.153Z,100750.97
2022-08-21T12:33:24.370Z,100759.75
2022-08-21T12:35:53.696Z,100755.09
2022-08-21T12:38:24.813Z,100747.13
2022-08-21T12:41:02.768Z,100742.97
2022-08-21T12:43:35.712Z,100739.34
2022-08-21T12:46:05.420Z,100730.72
2022-08-21T12:48:44.805Z,100739.94
2022-08-21T12:51:14.361Z,100739.44
2022-08-21T12:53:56.508Z,100736.06
2022-08-21T12:56:31.194Z,100750.31
2022-08-21T12:59:07.538Z,100736.88
2022-08-21T13:01:46.015Z,100731.03
2022-08-21T13:04:18.413Z,100729.69
2022-08-21T13:06:48.548Z,100721.56
2022-08-21T13:09:17.927Z,100725.44
2022-08-21T13:11:46.875Z,100725.91
2022-08-21T13:14:35.891Z,100728.97
2022-08-21T13:17:12.569Z,100734.03
2022-08-21T13:19:39.129Z,100734.81
2022-08-21T13:22:34.122Z,100736.13
2022-08-21T13:25:01.703Z,100714.38
2022-08-21T13:27:33.329Z,100721.84
2022-08-21T13:30:15.626Z,100699.88
2022-08-21T13:32:51.124Z,100717.75
2022-08-21T13:35:21.538Z,100709.28
2022-08-21T13:37:50.751Z,100709.50
2022-08-21T13:40:21.176Z,100702.00
2022-08-21T13:42:49.285Z,100716.97
2022-08-21T13:45:25.093Z,100705.09
2022-08-21T13:47:54.020Z,100698.84
2022-08-21T13:50:23.936Z,100703.69
2022-08-21T13:53:05.051Z,100713.16
2022-08-21T13:55:40.980Z,100701.88
2022-08-21T13:58:08.149Z,100696.88
2022-08-21T14:00:44.334Z,100696.44
2022-08-21T14:03:12.263Z,100696.69
2022-08-21T14:05:46.283Z,100702.13
2022-08-21T14:08:30.315Z,100685.06
2022-08-21T14:10:58.008Z,100691.69
2022-08-21T14:13:38.669Z,100699.97
2022-08-21T14:16:11.767Z,100691.81
2022-08-21T14:18:51.110Z,100679.81
2022-08-21T14:21:29.344Z,100693.22
2022-08-21T14:24:08.716Z,100687.06
2022-08-21T14:26:43.362Z,100683.25
2022-08-21T14:29:10.779Z,100683.38
2022-08-21T14:31:43.227Z,100681.50
2022-08-21T14:34:19.294Z,100674.94
2022-08-21T14:36:47.850Z,100667.47
2022-08-21T14:39:14.327Z,100673.78
2022-08-21T14:41:41.092Z,100667.22
2022-08-21T14:44:09.531Z,100663.84
2022-08-21T14:46:45.788Z,100669.72
2022-08-21T14:49:23.905Z,100662.09
2022-08-21T14:51:54.681Z,100661.75
2022-08-21T14:54:23.258Z,100661.06
2022-08-21T14:57:00.521Z,100663.75
2022-08-21T14:59:26.952Z,100668.06
2022-08-21T15:01:53.443Z,100675.91
2022-08-21T15:04:20.018Z,100670.91
2022-08-21T15:06:46.459Z,100676.06
2022-08-21T15:09:12.856Z,100679.84
2022-08-21T15:11:41.761Z,100680.72
2022-08-21T15:14:21.733Z,100674.97
2022-08-21T15:16:49.467Z,100677.50
2022-08-21T15:19:15.874Z,100683.44
2022-08-21T15:21:42.375Z,100680.47
2022-08-21T15:24:08.784Z,100676.63
2022-08-21T15:26:36.910Z,100680.50
2022-08-21T15:29:06.678Z,100672.47
2022-08-21T15:31:33.740Z,100673.69
2022-08-21T15:34:00.162Z,100675.09
2022-08-21T15:36:26.601Z,100676.94
2022-08-21T15:38:53.079Z,100673.97
2022-08-21T15:41:19.848Z,100671.00
2022-08-21T15:43:50.047Z,100664.00
2022-08-21T15:46:19.004Z,100670.16
2022-08-21T15:48:47.120Z,100668.06
2022-08-21T15:51:15.387Z,100670.84
2022-08-21T15:53:41.829Z,100669.44
2022-08-21T15:56:21.874Z,100662.19
2022-08-21T15:58:48.815Z,100671.94
2022-08-21T16:01:15.307Z,100662.28
2022-08-21T16:03:43.189Z,100667.09
2022-08-21T16:06:09.620Z,100659.13
2022-08-21T16:08:36.096Z,100668.97
2022-08-21T16:11:02.657Z,100670.94
2022-08-21T16:13:33.542Z,100669.53
2022-08-21T16:16:00.149Z,100678.13
2022-08-21T16:18:27.360Z,100664.34
2022-08-21T16:20:53.999Z,100678.81
2022-08-21T16:23:20.397Z,100678.34
2022-08-21T16:25:47.583Z,100683.25
2022-08-21T16:28:16.557Z,100674.50
2022-08-21T16:30:47.196Z,100681.09
2022-08-21T16:33:27.833Z,100681.84
2022-08-21T16:35:54.484Z,100678.19
2022-08-21T16:38:20.950Z,100685.25
2022-08-21T16:40:47.552Z,100668.81
2022-08-21T16:43:14.022Z,100671.63
2022-08-21T16:45:42.176Z,100671.88
2022-08-21T16:48:09.733Z,100669.22
2022-08-21T16:50:37.822Z,100670.09
2022-08-21T16:53:04.616Z,100676.59
2022-08-21T16:55:31.348Z,100668.63
2022-08-21T16:57:57.902Z,100675.63
2022-08-21T17:00:24.468Z,100688.13
2022-08-21T17:02:54.660Z,100683.13
2022-08-21T17:05:21.208Z,100683.97
2022-08-21T17:07:47.820Z,100685.47
2022-08-21T17:10:16.689Z,100694.63
2022-08-21T17:12:46.449Z,100692.13
2022-08-21T17:15:24.711Z,100689.44
2022-08-21T17:17:51.950Z,100702.63
2022-08-21T17:20:19.849Z,100700.06
2022-08-21T17:22:46.330Z,100692.19
2022-08-21T17:25:13.004Z,100707.16
2022-08-21T17:27:40.210Z,100713.13
2022-08-21T17:30:08.045Z,100713.78
2022-08-21T17:32:34.605Z,100705.88
2022-08-21T17:35:01.089Z,100711.16
2022-08-21T17:37:29.416Z,100712.13
2022-08-21T17:39:56.603Z,100713.94
2022-08-21T17:42:25.128Z,100718.38
2022-08-21T17:44:51.844Z,100721.16
2022-08-21T17:47:18.289Z,100728.75
2022-08-21T17:49:44.739Z,100732.84
2022-08-21T17:52:11.557Z,100721.19
2022-08-21T17:54:38.032Z,100728.44
2022-08-21T17:57:05.000Z,100726.69
2022-08-21T17:59:32.293Z,100734.78
2022-08-21T18:02:01.636Z,100733.94
2022-08-21T18:04:29.529Z,100743.56
2022-08-21T18:06:56.241Z,100739.91
2022-08-21T18:09:28.812Z,100747.31
2022-08-21T18:11:57.164Z,100746.31
2022-08-21T18:14:28.663Z,100754.06
2022-08-21T18:16:56.304Z,100751.16
2022-08-21T18:19:25.925Z,100760.91
2022-08-21T18:21:56.236Z,100761.00
2022-08-21T18:24:23.603Z,100752.50
2022-08-21T18:26:50.448Z,100759.16
2022-08-21T18:29:20.699Z,100767.09
2022-08-21T18:31:47.715Z,100768.97
2022-08-21T18:34:35.625Z,100755.66
2022-08-21T18:37:02.949Z,100768.16
2022-08-21T18:39:38.000Z,100772.75
2022-08-21T18:42:10.073Z,100765.56
2022-08-21T18:44:37.497Z,100763.47
2022-08-21T18:47:11.880Z,100771.41
2022-08-21T18:49:39.016Z,100774.31
2022-08-21T18:52:08.126Z,100778.63
2022-08-21T18:54:37.334Z,100778.41
2022-08-21T18:59:54.217Z,100782.16
2022-08-21T19:02:20.714Z,100790.91
2022-08-21T19:04:47.984Z,100790.69
2022-08-21T19:07:16.145Z,100787.31
2022-08-21T19:12:30.312Z,100802.97
2022-08-21T19:14:58.195Z,100791.78
2022-08-21T19:17:25.033Z,100795.84
2022-08-21T19:19:52.269Z,100787.59
2022-08-21T19:22:19.673Z,100794.44
2022-08-21T19:24:49.875Z,100789.00
2022-08-21T19:27:17.404Z,100786.88
2022-08-21T19:29:43.937Z,100792.13
2022-08-21T19:32:10.991Z,100796.44
2022-08-21T19:34:39.884Z,100801.41
2022-08-21T19:37:06.583Z,100803.25
2022-08-21T19:39:39.489Z,100806.72
2022-08-21T19:42:10.208Z,100806.56
2022-08-21T19:44:37.912Z,100814.31
2022-08-21T19:47:13.255Z,100818.94
2022-08-21T19:49:49.960Z,100813.75
2022-08-21T19:52:16.503Z,100820.28
2022-08-21T19:54:44.636Z,100816.47
2022-08-21T19:57:12.136Z,100822.22
2022-08-21T19:59:40.551Z,100817.25
2022-08-21T20:02:07.836Z,100812.88
2022-08-21T20:04:34.375Z,100817.53
2022-08-21T20:07:01.141Z,100819.28
2022-08-21T20:09:27.921Z,100826.09
2022-08-21T20:11:57.776Z,100825.91
2022-08-21T20:14:31.072Z,100831.59
2022-08-21T20:17:05.838Z,100831.94
2022-08-21T20:19:32.400Z,100840.97
2022-08-21T20:21:58.891Z,100838.25
2022-08-21T20:24:27.462Z,100846.16
2022-08-21T20:26:55.058Z,100842.84
2022-08-21T20:29:24.510Z,100847.34
2022-08-21T20:31:56.274Z,100851.84
2022-08-21T20:34:22.954Z,100839.03
2022-08-21T20:36:52.229Z,100847.22
2022-08-21T20:39:19.905Z,100848.94
2022-08-21T20:41:51.565Z,100851.75
2022-08-21T20:44:18.063Z,100848.72
2022-08-21T20:46:44.914Z,100847.63
2022-08-21T20:49:17.434Z,100853.22
2022-08-21T20:51:51.488Z,100850.75
2022-08-21T20:54:29.689Z,100859.16
2022-08-21T20:57:18.191Z,100854.13
2022-08-21T20:59:50.680Z,100869.28
2022-08-21T21:02:29.171Z,100858.91
2022-08-21T21:05:02.882Z,100854.13
2022-08-21T21:07:54.884Z,100855.81
2022-08-21T21:10:36.619Z,100856.13
2022-08-21T21:13:13.581Z,100865.09
2022-08-21T21:15:43.389Z,100857.84
2022-08-21T21:18:16.625Z,100853.63
2022-08-21T21:20:51.736Z,100856.44
2022-08-21T21:23:38.902Z,100857.28
2022-08-21T21:26:22.097Z,100860.66
2022-08-21T21:29:10.493Z,100858.41
2022-08-21T21:31:37.322Z,100850.56
2022-08-21T21:34:03.891Z,100856.72
2022-08-21T21:36:56.432Z,100854.50
2022-08-21T21:39:36.405Z,100864.56
2022-08-21T21:42:38.578Z,100856.44
2022-08-21T21:45:26.680Z,100846.94
2022-08-21T21:48:00.708Z,100846.09
2022-08-21T21:50:50.947Z,100856.72
2022-08-21T21:53:28.461Z,100852.28
2022-08-21T21:56:07.122Z,100850.59
2022-08-21T21:58:59.748Z,100850.00
2022-08-21T22:01:40.848Z,100847.78
2022-08-21T22:04:56.786Z,100847.78
2022-08-21T22:07:40.148Z,100856.72
2022-08-21T22:13:26.373Z,100852.25
2022-08-21T22:15:54.589Z,100854.22
2022-08-21T22:18:26.157Z,100864.25
2022-08-21T22:20:58.219Z,100869.84
2022-08-21T22:23:30.058Z,100864.56
2022-08-21T22:26:05.471Z,100857.84
2022-08-21T22:28:37.637Z,100862.88
2022-08-21T22:31:12.286Z,100866.78
2022-08-21T22:33:41.126Z,100866.78
2022-08-21T22:36:18.320Z,100875.75
2022-08-21T22:38:46.381Z,100869.84
2022-08-21T22:41:27.949Z,100868.16
2022-08-21T22:44:03.939Z,100878.78
2022-08-21T22:46:44.882Z,100877.38
2022-08-21T22:49:21.710Z,100883.50
2022-08-21T22:52:05.255Z,100886.88
2022-08-21T22:54:38.664Z,100881.53
2022-08-21T22:57:09.042Z,100889.13
2022-08-21T22:59:52.737Z,100895.81
2022-08-21T23:02:30.535Z,100887.41
2022-08-21T23:05:00.833Z,100890.22
2022-08-21T23:07:43.710Z,100893.81
2022-08-21T23:10:32.806Z,100897.44
2022-08-21T23:13:09.175Z,100892.41
2022-08-21T23:15:59.132Z,100900.75
2022-08-21T23:19:02.667Z,100902.72
2022-08-21T23:21:52.310Z,100897.34
2022-08-21T23:24:27.506Z,100901.25
2022-08-21T23:27:13.520Z,100893.44
2022-08-21T23:30:02.062Z,100893.97
2022-08-21T23:33:11.580Z,100888.94
2022-08-21T23:36:07.707Z,100886.69
2022-08-21T23:41:42.401Z,100888.88
2022-08-21T23:44:31.233Z,100886.09
2022-08-21T23:47:06.097Z,100877.41
2022-08-21T23:49:53.804Z,100882.16
2022-08-21T23:52:48.895Z,100884.91
2022-08-21T23:55:20.435Z,100886.28
2022-08-21T23:58:18.818Z,100885.47
